sensor_id;sensor_type;location;lat;lon;timestamp;temperature;humidity
1786;DHT22;890;48.158;11.540;2023-04-01T00:01:29;9.20;76.50
1786;DHT22;890;48.158;11.540;2023-04-01T00:03:55;9.20;76.80
1786;DHT22;890;48.158;11.540;2023-04-01T00:06:22;9.10;76.90
1786;DHT22;890;48.158;11.540;2023-04-01T00:08:48;9.10;77.20
1786;DHT22;890;48.158;11.540;2023-04-01T00:11:14;9.10;77.40
1786;DHT22;890;48.158;11.540;2023-04-01T00:13:40;9.10;77.60
1786;DHT22;890;48.158;11.540;2023-04-01T00:16:07;9.10;77.70
1786;DHT22;890;48.158;11.540;2023-04-01T00:18:33;9.10;77.70
1786;DHT22;890;48.158;11.540;2023-04-01T00:20:58;9.10;77.60
1786;DHT22;890;48.158;11.540;2023-04-01T00:23:24;9.10;77.70
1786;DHT22;890;48.158;11.540;2023-04-01T00:25:50;9.20;77.80
1786;DHT22;890;48.158;11.540;2023-04-01T00:28:17;9.20;77.70
1786;DHT22;890;48.158;11.540;2023-04-01T00:30:43;9.10;77.60
1786;DHT22;890;48.158;11.540;2023-04-01T00:33:08;9.20;77.90
1786;DHT22;890;48.158;11.540;2023-04-01T00:35:34;9.10;77.70
1786;DHT22;890;48.158;11.540;2023-04-01T00:38:00;9.10;77.50
1786;DHT22;890;48.158;11.540;2023-04-01T00:40:37;9.10;77.60
1786;DHT22;890;48.158;11.540;2023-04-01T00:43:08;9.00;77.80
1786;DHT22;890;48.158;11.540;2023-04-01T00:45:38;9.00;77.90
1786;DHT22;890;48.158;11.540;2023-04-01T00:48:08;9.00;78.10
1786;DHT22;890;48.158;11.540;2023-04-01T00:50:37;9.00;78.30
1786;DHT22;890;48.158;11.540;2023-04-01T00:53:05;9.00;78.40
1786;DHT22;890;48.158;11.540;2023-04-01T00:55:35;9.00;78.30
1786;DHT22;890;48.158;11.540;2023-04-01T00:58:03;9.00;78.50
1786;DHT22;890;48.158;11.540;2023-04-01T01:00:30;9.00;79.30
1786;DHT22;890;48.158;11.540;2023-04-01T01:02:57;9.00;78.50
1786;DHT22;890;48.158;11.540;2023-04-01T01:05:34;9.00;78.60
1786;DHT22;890;48.158;11.540;2023-04-01T01:08:18;9.00;78.70
1786;DHT22;890;48.158;11.540;2023-04-01T01:10:51;9.00;78.80
1786;DHT22;890;48.158;11.540;2023-04-01T01:15:59;9.00;78.60
1786;DHT22;890;48.158;11.540;2023-04-01T01:18:47;9.00;78.60
1786;DHT22;890;48.158;11.540;2023-04-01T01:24:13;9.00;78.80
1786;DHT22;890;48.158;11.540;2023-04-01T01:26:46;8.90;78.90
1786;DHT22;890;48.158;11.540;2023-04-01T01:32:07;9.10;78.90
1786;DHT22;890;48.158;11.540;2023-04-01T01:34:51;9.10;78.80
1786;DHT22;890;48.158;11.540;2023-04-01T01:37:22;9.10;78.70
1786;DHT22;890;48.158;11.540;2023-04-01T01:39:53;9.10;78.60
1786;DHT22;890;48.158;11.540;2023-04-01T01:42:20;9.10;78.60
1786;DHT22;890;48.158;11.540;2023-04-01T01:44:48;9.10;78.60
1786;DHT22;890;48.158;11.540;2023-04-01T01:47:15;9.10;78.70
1786;DHT22;890;48.158;11.540;2023-04-01T01:49:43;9.10;78.70
1786;DHT22;890;48.158;11.540;2023-04-01T01:52:11;9.10;78.60
1786;DHT22;890;48.158;11.540;2023-04-01T01:54:47;9.10;78.60
1786;DHT22;890;48.158;11.540;2023-04-01T01:57:14;9.10;78.60
1786;DHT22;890;48.158;11.540;2023-04-01T01:59:41;9.20;78.70
1786;DHT22;890;48.158;11.540;2023-04-01T02:02:09;9.20;78.60
1786;DHT22;890;48.158;11.540;2023-04-01T02:04:38;9.20;78.50
1786;DHT22;890;48.158;11.540;2023-04-01T02:07:08;9.10;78.50
1786;DHT22;890;48.158;11.540;2023-04-01T02:09:36;9.10;78.40
1786;DHT22;890;48.158;11.540;2023-04-01T02:12:08;9.20;78.50
1786;DHT22;890;48.158;11.540;2023-04-01T02:17:16;9.20;78.30
1786;DHT22;890;48.158;11.540;2023-04-01T02:19:47;9.10;78.20
1786;DHT22;890;48.158;11.540;2023-04-01T02:22:20;10.70;78.50
1786;DHT22;890;48.158;11.540;2023-04-01T02:24:48;9.10;78.10
1786;DHT22;890;48.158;11.540;2023-04-01T02:27:14;9.10;78.10
1786;DHT22;890;48.158;11.540;2023-04-01T02:29:40;9.10;78.10
1786;DHT22;890;48.158;11.540;2023-04-01T02:32:07;9.10;78.00
1786;DHT22;890;48.158;11.540;2023-04-01T02:34:34;9.10;78.10
1786;DHT22;890;48.158;11.540;2023-04-01T02:37:00;9.10;78.10
1786;DHT22;890;48.158;11.540;2023-04-01T02:39:26;9.10;78.10
1786;DHT22;890;48.158;11.540;2023-04-01T02:41:52;9.10;78.10
1786;DHT22;890;48.158;11.540;2023-04-01T02:44:18;9.10;78.10
1786;DHT22;890;48.158;11.540;2023-04-01T02:46:44;9.10;78.10
1786;DHT22;890;48.158;11.540;2023-04-01T02:49:09;9.10;78.10
1786;DHT22;890;48.158;11.540;2023-04-01T02:51:35;9.10;78.00
1786;DHT22;890;48.158;11.540;2023-04-01T02:54:01;9.10;77.90
1786;DHT22;890;48.158;11.540;2023-04-01T02:56:26;9.10;78.10
1786;DHT22;890;48.158;11.540;2023-04-01T02:58:53;9.10;78.00
1786;DHT22;890;48.158;11.540;2023-04-01T03:01:19;9.10;78.00
1786;DHT22;890;48.158;11.540;2023-04-01T03:03:45;9.10;78.00
1786;DHT22;890;48.158;11.540;2023-04-01T03:06:13;9.10;78.00
1786;DHT22;890;48.158;11.540;2023-04-01T03:08:39;9.00;78.00
1786;DHT22;890;48.158;11.540;2023-04-01T03:11:05;9.10;78.10
1786;DHT22;890;48.158;11.540;2023-04-01T03:13:31;9.00;78.00
1786;DHT22;890;48.158;11.540;2023-04-01T03:15:57;9.00;78.00
1786;DHT22;890;48.158;11.540;2023-04-01T03:18:22;9.00;78.10
1786;DHT22;890;48.158;11.540;2023-04-01T03:20:48;9.00;78.10
1786;DHT22;890;48.158;11.540;2023-04-01T03:23:14;9.00;78.20
1786;DHT22;890;48.158;11.540;2023-04-01T03:25:41;9.00;78.00
1786;DHT22;890;48.158;11.540;2023-04-01T03:28:07;9.00;78.10
1786;DHT22;890;48.158;11.540;2023-04-01T03:30:32;8.90;78.10
1786;DHT22;890;48.158;11.540;2023-04-01T03:32:59;8.90;78.10
1786;DHT22;890;48.158;11.540;2023-04-01T03:35:27;8.90;78.10
1786;DHT22;890;48.158;11.540;2023-04-01T03:37:53;8.90;78.10
1786;DHT22;890;48.158;11.540;2023-04-01T03:40:20;8.80;78.80
1786;DHT22;890;48.158;11.540;2023-04-01T03:42:45;8.80;78.10
1786;DHT22;890;48.158;11.540;2023-04-01T03:45:11;8.70;78.10
1786;DHT22;890;48.158;11.540;2023-04-01T03:47:38;8.70;78.20
1786;DHT22;890;48.158;11.540;2023-04-01T03:50:05;8.70;78.20
1786;DHT22;890;48.158;11.540;2023-04-01T03:52:31;8.70;78.40
1786;DHT22;890;48.158;11.540;2023-04-01T03:54:57;8.60;78.40
1786;DHT22;890;48.158;11.540;2023-04-01T03:57:23;8.60;78.60
1786;DHT22;890;48.158;11.540;2023-04-01T03:59:48;8.60;78.60
1786;DHT22;890;48.158;11.540;2023-04-01T04:02:14;8.60;78.70
1786;DHT22;890;48.158;11.540;2023-04-01T04:04:39;8.60;78.70
1786;DHT22;890;48.158;11.540;2023-04-01T04:07:06;8.50;78.80
1786;DHT22;890;48.158;11.540;2023-04-01T04:09:31;8.60;79.00
1786;DHT22;890;48.158;11.540;2023-04-01T04:11:58;8.60;79.10
1786;DHT22;890;48.158;11.540;2023-04-01T04:14:24;8.60;79.20
1786;DHT22;890;48.158;11.540;2023-04-01T04:16:50;8.60;79.20
1786;DHT22;890;48.158;11.540;2023-04-01T04:19:15;8.60;79.30
1786;DHT22;890;48.158;11.540;2023-04-01T04:21:41;8.60;79.40
1786;DHT22;890;48.158;11.540;2023-04-01T04:24:07;8.60;79.40
1786;DHT22;890;48.158;11.540;2023-04-01T04:26:33;8.60;79.60
1786;DHT22;890;48.158;11.540;2023-04-01T04:28:59;8.70;80.00
1786;DHT22;890;48.158;11.540;2023-04-01T04:31:25;8.60;80.00
1786;DHT22;890;48.158;11.540;2023-04-01T04:33:51;8.70;80.10
1786;DHT22;890;48.158;11.540;2023-04-01T04:36:18;8.70;80.20
1786;DHT22;890;48.158;11.540;2023-04-01T04:38:44;8.70;80.10
1786;DHT22;890;48.158;11.540;2023-04-01T04:41:10;8.60;79.90
1786;DHT22;890;48.158;11.540;2023-04-01T04:43:38;8.60;79.90
1786;DHT22;890;48.158;11.540;2023-04-01T04:46:07;8.80;80.10
1786;DHT22;890;48.158;11.540;2023-04-01T04:48:33;8.70;79.90
1786;DHT22;890;48.158;11.540;2023-04-01T04:50:59;8.80;79.80
1786;DHT22;890;48.158;11.540;2023-04-01T04:53:25;8.80;79.80
1786;DHT22;890;48.158;11.540;2023-04-01T04:55:51;8.80;79.80
1786;DHT22;890;48.158;11.540;2023-04-01T04:58:17;8.90;79.80
1786;DHT22;890;48.158;11.540;2023-04-01T05:00:43;8.90;79.70
1786;DHT22;890;48.158;11.540;2023-04-01T05:03:09;8.90;79.60
1786;DHT22;890;48.158;11.540;2023-04-01T05:05:35;9.00;79.60
1786;DHT22;890;48.158;11.540;2023-04-01T05:08:01;9.00;79.30
1786;DHT22;890;48.158;11.540;2023-04-01T05:10:27;9.00;79.30
1786;DHT22;890;48.158;11.540;2023-04-01T05:12:53;9.00;79.30
1786;DHT22;890;48.158;11.540;2023-04-01T05:15:18;9.10;79.20
1786;DHT22;890;48.158;11.540;2023-04-01T05:17:44;9.10;79.10
1786;DHT22;890;48.158;11.540;2023-04-01T05:20:12;9.10;78.80
1786;DHT22;890;48.158;11.540;2023-04-01T05:22:39;9.10;78.70
1786;DHT22;890;48.158;11.540;2023-04-01T05:25:05;9.10;78.60
1786;DHT22;890;48.158;11.540;2023-04-01T05:27:30;9.20;78.40
1786;DHT22;890;48.158;11.540;2023-04-01T05:29:57;9.20;78.30
1786;DHT22;890;48.158;11.540;2023-04-01T05:32:22;9.20;78.20
1786;DHT22;890;48.158;11.540;2023-04-01T05:34:50;9.30;78.20
1786;DHT22;890;48.158;11.540;2023-04-01T05:37:17;9.30;77.90
1786;DHT22;890;48.158;11.540;2023-04-01T05:39:42;9.30;77.70
1786;DHT22;890;48.158;11.540;2023-04-01T05:42:08;9.30;77.60
1786;DHT22;890;48.158;11.540;2023-04-01T05:44:34;9.30;77.50
1786;DHT22;890;48.158;11.540;2023-04-01T05:47:00;9.30;77.50
1786;DHT22;890;48.158;11.540;2023-04-01T05:49:26;9.30;77.40
1786;DHT22;890;48.158;11.540;2023-04-01T05:51:51;9.30;77.20
1786;DHT22;890;48.158;11.540;2023-04-01T05:54:17;9.30;77.20
1786;DHT22;890;48.158;11.540;2023-04-01T05:56:43;9.30;77.10
1786;DHT22;890;48.158;11.540;2023-04-01T05:59:11;9.40;77.00
1786;DHT22;890;48.158;11.540;2023-04-01T06:01:37;9.40;76.90
1786;DHT22;890;48.158;11.540;2023-04-01T06:04:02;9.40;76.80
1786;DHT22;890;48.158;11.540;2023-04-01T06:06:29;9.40;76.70
1786;DHT22;890;48.158;11.540;2023-04-01T06:09:00;9.40;76.60
1786;DHT22;890;48.158;11.540;2023-04-01T06:14:28;9.50;76.60
1786;DHT22;890;48.158;11.540;2023-04-01T06:17:18;9.40;76.20
1786;DHT22;890;48.158;11.540;2023-04-01T06:22:42;9.40;75.90
1786;DHT22;890;48.158;11.540;2023-04-01T06:25:38;9.40;75.70
1786;DHT22;890;48.158;11.540;2023-04-01T06:30:59;9.50;75.40
1786;DHT22;890;48.158;11.540;2023-04-01T06:33:50;9.50;75.10
1786;DHT22;890;48.158;11.540;2023-04-01T06:39:55;9.60;74.70
1786;DHT22;890;48.158;11.540;2023-04-01T06:50:43;9.70;73.80
1786;DHT22;890;48.158;11.540;2023-04-01T06:53:42;9.70;73.70
1786;DHT22;890;48.158;11.540;2023-04-01T06:56:12;9.80;73.50
1786;DHT22;890;48.158;11.540;2023-04-01T06:58:44;10.00;72.60
1786;DHT22;890;48.158;11.540;2023-04-01T07:01:20;10.10;72.60
1786;DHT22;890;48.158;11.540;2023-04-01T07:03:56;10.20;72.20
1786;DHT22;890;48.158;11.540;2023-04-01T07:06:37;10.20;71.80
1786;DHT22;890;48.158;11.540;2023-04-01T07:09:26;10.30;71.80
1786;DHT22;890;48.158;11.540;2023-04-01T07:11:56;10.30;71.20
1786;DHT22;890;48.158;11.540;2023-04-01T07:14:35;10.40;71.30
1786;DHT22;890;48.158;11.540;2023-04-01T07:20:13;10.40;70.30
1786;DHT22;890;48.158;11.540;2023-04-01T07:22:45;10.40;70.70
1786;DHT22;890;48.158;11.540;2023-04-01T07:25:20;10.40;70.90
1786;DHT22;890;48.158;11.540;2023-04-01T07:27:46;10.80;68.50
1786;DHT22;890;48.158;11.540;2023-04-01T07:30:40;10.90;69.70
1786;DHT22;890;48.158;11.540;2023-04-01T07:33:16;10.70;69.00
1786;DHT22;890;48.158;11.540;2023-04-01T07:36:01;10.80;69.70
1786;DHT22;890;48.158;11.540;2023-04-01T07:41:27;11.00;69.50
1786;DHT22;890;48.158;11.540;2023-04-01T07:44:08;11.00;69.00
1786;DHT22;890;48.158;11.540;2023-04-01T07:58:12;11.30;68.40
1786;DHT22;890;48.158;11.540;2023-04-01T08:06:40;11.20;67.20
1786;DHT22;890;48.158;11.540;2023-04-01T08:20:36;11.40;66.60
1786;DHT22;890;48.158;11.540;2023-04-01T08:23:16;11.40;66.30
1786;DHT22;890;48.158;11.540;2023-04-01T08:25:54;12.10;67.10
1786;DHT22;890;48.158;11.540;2023-04-01T08:28:39;11.50;66.10
1786;DHT22;890;48.158;11.540;2023-04-01T08:31:16;11.50;65.70
1786;DHT22;890;48.158;11.540;2023-04-01T08:33:46;11.60;66.10
1786;DHT22;890;48.158;11.540;2023-04-01T08:36:19;11.60;65.90
1786;DHT22;890;48.158;11.540;2023-04-01T08:38:53;11.70;65.50
1786;DHT22;890;48.158;11.540;2023-04-01T08:47:46;11.90;64.80
1786;DHT22;890;48.158;11.540;2023-04-01T09:04:36;12.10;63.50
1786;DHT22;890;48.158;11.540;2023-04-01T09:06:50;12.10;62.70
1786;DHT22;890;48.158;11.540;2023-04-01T09:20:42;12.90;64.00
1786;DHT22;890;48.158;11.540;2023-04-01T09:36:03;13.00;60.30
1786;DHT22;890;48.158;11.540;2023-04-01T09:41:29;13.10;61.00
1786;DHT22;890;48.158;11.540;2023-04-01T09:47:00;13.60;62.20
1786;DHT22;890;48.158;11.540;2023-04-01T09:52:44;14.00;62.70
1786;DHT22;890;48.158;11.540;2023-04-01T10:34:06;14.30;57.30
1786;DHT22;890;48.158;11.540;2023-04-01T10:36:54;14.20;56.90
1786;DHT22;890;48.158;11.540;2023-04-01T10:57:09;12.80;58.30
1786;DHT22;890;48.158;11.540;2023-04-01T11:27:02;11.70;65.40
1786;DHT22;890;48.158;11.540;2023-04-01T11:35:28;12.10;65.30
1786;DHT22;890;48.158;11.540;2023-04-01T11:46:17;11.90;65.90
1786;DHT22;890;48.158;11.540;2023-04-01T11:52:04;10.90;67.90
1786;DHT22;890;48.158;11.540;2023-04-01T12:03:08;9.50;75.00
1786;DHT22;890;48.158;11.540;2023-04-01T12:06:02;9.40;75.70
1786;DHT22;890;48.158;11.540;2023-04-01T12:13:56;9.50;77.10
1786;DHT22;890;48.158;11.540;2023-04-01T12:16:42;9.40;77.40
1786;DHT22;890;48.158;11.540;2023-04-01T12:25:00;9.30;78.40
1786;DHT22;890;48.158;11.540;2023-04-01T12:30:32;9.50;78.70
1786;DHT22;890;48.158;11.540;2023-04-01T12:41:32;9.80;77.70
1786;DHT22;890;48.158;11.540;2023-04-01T12:49:44;9.90;77.70
1786;DHT22;890;48.158;11.540;2023-04-01T12:52:25;10.00;76.30
1786;DHT22;890;48.158;11.540;2023-04-01T13:00:54;9.80;77.80
1786;DHT22;890;48.158;11.540;2023-04-01T13:03:53;9.80;77.80
1786;DHT22;890;48.158;11.540;2023-04-01T13:12:12;9.80;76.70
1786;DHT22;890;48.158;11.540;2023-04-01T13:17:33;10.00;75.80
1786;DHT22;890;48.158;11.540;2023-04-01T13:28:27;10.00;76.30
1786;DHT22;890;48.158;11.540;2023-04-01T13:31:12;10.00;76.30
1786;DHT22;890;48.158;11.540;2023-04-01T13:34:03;10.00;76.50
1786;DHT22;890;48.158;11.540;2023-04-01T13:36:51;10.00;77.00
1786;DHT22;890;48.158;11.540;2023-04-01T13:39:27;10.00;77.00
1786;DHT22;890;48.158;11.540;2023-04-01T13:45:02;10.00;77.90
1786;DHT22;890;48.158;11.540;2023-04-01T13:50:34;10.00;78.00
1786;DHT22;890;48.158;11.540;2023-04-01T13:59:16;9.80;79.90
1786;DHT22;890;48.158;11.540;2023-04-01T14:02:02;9.90;79.60
1786;DHT22;890;48.158;11.540;2023-04-01T14:07:47;10.10;78.40
1786;DHT22;890;48.158;11.540;2023-04-01T14:13:28;10.10;79.00
1786;DHT22;890;48.158;11.540;2023-04-01T14:21:12;10.00;80.10
1786;DHT22;890;48.158;11.540;2023-04-01T14:24:12;10.10;79.60
1786;DHT22;890;48.158;11.540;2023-04-01T14:32:45;10.20;77.90
1786;DHT22;890;48.158;11.540;2023-04-01T14:35:37;10.20;77.70
1786;DHT22;890;48.158;11.540;2023-04-01T14:38:12;10.20;78.00
1786;DHT22;890;48.158;11.540;2023-04-01T14:48:59;9.90;82.00
1786;DHT22;890;48.158;11.540;2023-04-01T14:51:38;10.00;81.10
1786;DHT22;890;48.158;11.540;2023-04-01T14:54:20;10.20;80.60
1786;DHT22;890;48.158;11.540;2023-04-01T14:57:03;10.20;79.90
1786;DHT22;890;48.158;11.540;2023-04-01T14:59:29;10.30;79.70
1786;DHT22;890;48.158;11.540;2023-04-01T15:04:54;10.50;79.30
1786;DHT22;890;48.158;11.540;2023-04-01T15:13:34;10.60;79.40
1786;DHT22;890;48.158;11.540;2023-04-01T15:15:45;10.30;79.60
1786;DHT22;890;48.158;11.540;2023-04-01T15:24:25;10.00;80.40
1786;DHT22;890;48.158;11.540;2023-04-01T15:27:14;10.10;80.10
1786;DHT22;890;48.158;11.540;2023-04-01T15:30:13;10.20;79.70
1786;DHT22;890;48.158;11.540;2023-04-01T15:33:05;10.10;79.30
1786;DHT22;890;48.158;11.540;2023-04-01T15:41:02;10.10;78.10
1786;DHT22;890;48.158;11.540;2023-04-01T15:43:46;10.20;78.40
1786;DHT22;890;48.158;11.540;2023-04-01T16:06:08;10.90;75.10
1786;DHT22;890;48.158;11.540;2023-04-01T16:14:06;11.00;73.70
1786;DHT22;890;48.158;11.540;2023-04-01T16:19:33;10.90;72.60
1786;DHT22;890;48.158;11.540;2023-04-01T16:25:14;11.00;71.90
1786;DHT22;890;48.158;11.540;2023-04-01T16:28:22;10.90;71.80
1786;DHT22;890;48.158;11.540;2023-04-01T16:38:47;11.00;70.90
1786;DHT22;890;48.158;11.540;2023-04-01T16:43:44;11.00;71.00
1786;DHT22;890;48.158;11.540;2023-04-01T16:51:24;10.90;70.50
1786;DHT22;890;48.158;11.540;2023-04-01T16:54:44;10.90;70.70
1786;DHT22;890;48.158;11.540;2023-04-01T16:59:36;10.90;70.70
1786;DHT22;890;48.158;11.540;2023-04-01T17:04:48;10.80;69.90
1786;DHT22;890;48.158;11.540;2023-04-01T17:07:35;10.80;69.80
1786;DHT22;890;48.158;11.540;2023-04-01T17:23:20;10.70;69.10
1786;DHT22;890;48.158;11.540;2023-04-01T17:25:57;10.70;69.10
1786;DHT22;890;48.158;11.540;2023-04-01T17:28:46;10.70;69.20
1786;DHT22;890;48.158;11.540;2023-04-01T17:34:18;10.70;69.00
1786;DHT22;890;48.158;11.540;2023-04-01T17:56:47;10.60;67.90
1786;DHT22;890;48.158;11.540;2023-04-01T17:59:37;10.60;68.00
1786;DHT22;890;48.158;11.540;2023-04-01T18:02:21;10.60;68.10
1786;DHT22;890;48.158;11.540;2023-04-01T18:07:28;10.70;68.10
1786;DHT22;890;48.158;11.540;2023-04-01T18:10:31;10.70;68.10
1786;DHT22;890;48.158;11.540;2023-04-01T18:13:25;10.70;67.80
1786;DHT22;890;48.158;11.540;2023-04-01T18:16:39;10.60;68.40
1786;DHT22;890;48.158;11.540;2023-04-01T18:19:27;10.60;67.60
1786;DHT22;890;48.158;11.540;2023-04-01T18:22:17;10.60;67.60
1786;DHT22;890;48.158;11.540;2023-04-01T18:27:36;10.60;67.90
1786;DHT22;890;48.158;11.540;2023-04-01T18:32:53;10.60;68.20
1786;DHT22;890;48.158;11.540;2023-04-01T18:35:52;10.60;68.70
1786;DHT22;890;48.158;11.540;2023-04-01T18:38:31;10.50;69.10
1786;DHT22;890;48.158;11.540;2023-04-01T18:46:47;10.50;69.40
1786;DHT22;890;48.158;11.540;2023-04-01T18:49:41;10.40;69.30
1786;DHT22;890;48.158;11.540;2023-04-01T18:52:31;10.30;69.60
1786;DHT22;890;48.158;11.540;2023-04-01T18:57:46;10.30;70.10
1786;DHT22;890;48.158;11.540;2023-04-01T19:00:25;10.30;70.20
1786;DHT22;890;48.158;11.540;2023-04-01T19:03:02;10.40;70.20
1786;DHT22;890;48.158;11.540;2023-04-01T19:05:40;10.40;70.00
1786;DHT22;890;48.158;11.540;2023-04-01T19:08:31;10.40;70.10
1786;DHT22;890;48.158;11.540;2023-04-01T19:22:18;10.50;70.70
1786;DHT22;890;48.158;11.540;2023-04-01T19:25:02;10.60;70.90
1786;DHT22;890;48.158;11.540;2023-04-01T19:30:26;10.50;70.60
1786;DHT22;890;48.158;11.540;2023-04-01T19:37:08;10.40;70.90
1786;DHT22;890;48.158;11.540;2023-04-01T19:50:55;10.20;71.50
1786;DHT22;890;48.158;11.540;2023-04-01T19:53:31;10.10;71.70
1786;DHT22;890;48.158;11.540;2023-04-01T19:58:49;10.00;71.70
1786;DHT22;890;48.158;11.540;2023-04-01T20:01:32;9.90;73.10
1786;DHT22;890;48.158;11.540;2023-04-01T20:04:13;9.90;73.20
1786;DHT22;890;48.158;11.540;2023-04-01T20:06:44;10.60;73.00
1786;DHT22;890;48.158;11.540;2023-04-01T20:12:07;9.70;73.30
1786;DHT22;890;48.158;11.540;2023-04-01T20:14:51;9.70;73.40
1786;DHT22;890;48.158;11.540;2023-04-01T20:23:35;9.60;73.80
1786;DHT22;890;48.158;11.540;2023-04-01T20:25:54;9.50;73.90
1786;DHT22;890;48.158;11.540;2023-04-01T20:44:39;9.60;74.20
1786;DHT22;890;48.158;11.540;2023-04-01T20:47:34;9.60;74.20
1786;DHT22;890;48.158;11.540;2023-04-01T20:53:28;9.50;74.30
1786;DHT22;890;48.158;11.540;2023-04-01T20:58:51;9.60;74.40
1786;DHT22;890;48.158;11.540;2023-04-01T21:01:47;9.60;74.50
1786;DHT22;890;48.158;11.540;2023-04-01T21:07:37;9.50;74.50
1786;DHT22;890;48.158;11.540;2023-04-01T21:13:02;9.70;74.70
1786;DHT22;890;48.158;11.540;2023-04-01T21:27:05;9.60;74.60
1786;DHT22;890;48.158;11.540;2023-04-01T21:29:55;9.40;74.70
1786;DHT22;890;48.158;11.540;2023-04-01T21:35:39;9.30;75.00
1786;DHT22;890;48.158;11.540;2023-04-01T21:41:01;9.40;75.20
1786;DHT22;890;48.158;11.540;2023-04-01T21:43:37;9.40;75.40
1786;DHT22;890;48.158;11.540;2023-04-01T21:46:29;9.50;75.40
1786;DHT22;890;48.158;11.540;2023-04-01T21:49:36;9.40;75.30
1786;DHT22;890;48.158;11.540;2023-04-01T22:00:06;9.50;75.20
1786;DHT22;890;48.158;11.540;2023-04-01T22:02:48;9.50;75.30
1786;DHT22;890;48.158;11.540;2023-04-01T22:05:37;9.40;75.30
1786;DHT22;890;48.158;11.540;2023-04-01T22:10:46;9.40;75.50
1786;DHT22;890;48.158;11.540;2023-04-01T22:18:59;9.40;76.10
1786;DHT22;890;48.158;11.540;2023-04-01T22:21:39;9.40;75.40
1786;DHT22;890;48.158;11.540;2023-04-01T22:24:34;9.50;75.50
1786;DHT22;890;48.158;11.540;2023-04-01T22:35:11;9.50;75.40
1786;DHT22;890;48.158;11.540;2023-04-01T22:40:46;9.40;75.40
1786;DHT22;890;48.158;11.540;2023-04-01T22:43:38;9.50;75.60
1786;DHT22;890;48.158;11.540;2023-04-01T22:48:50;9.50;75.40
1786;DHT22;890;48.158;11.540;2023-04-01T22:54:02;9.50;75.40
1786;DHT22;890;48.158;11.540;2023-04-01T22:56:40;9.60;75.40
1786;DHT22;890;48.158;11.540;2023-04-01T23:04:42;9.50;75.20
1786;DHT22;890;48.158;11.540;2023-04-01T23:09:56;9.40;75.20
1786;DHT22;890;48.158;11.540;2023-04-01T23:12:22;9.40;75.20
1786;DHT22;890;48.158;11.540;2023-04-01T23:14:55;9.50;75.30
1786;DHT22;890;48.158;11.540;2023-04-01T23:28:47;9.50;75.50
1786;DHT22;890;48.158;11.540;2023-04-01T23:36:41;9.40;75.40
1786;DHT22;890;48.158;11.540;2023-04-01T23:39:40;9.40;75.50
1786;DHT22;890;48.158;11.540;2023-04-01T23:42:14;9.40;75.50
1786;DHT22;890;48.158;11.540;2023-04-01T23:44:41;9.40;75.50
1786;DHT22;890;48.158;11.540;2023-04-01T23:47:14;9.40;75.50
1786;DHT22;890;48.158;11.540;2023-04-01T23:49:45;9.40;75.50
1786;DHT22;890;48.158;11.540;2023-04-01T23:52:21;9.40;75.50
